createdAt,value
2023-01-27T00:00:13.324Z,143688.19
2023-01-27T00:02:40.968Z,143845.22
2023-01-27T00:05:08.316Z,143836.75
2023-01-27T00:07:35.494Z,143879.03
2023-01-27T00:10:02.389Z,143871.81
2023-01-27T00:12:47.881Z,143886.31
2023-01-27T00:15:15.530Z,143876.63
2023-01-27T00:17:42.748Z,143881.47
2023-01-27T00:20:10.061Z,143870.59
2023-01-27T00:22:55.510Z,143881.47
2023-01-27T00:25:22.311Z,143869.38
2023-01-27T00:27:49.121Z,143871.81
2023-01-27T00:30:15.974Z,143892.31
2023-01-27T00:33:01.302Z,143883.84
2023-01-27T00:35:28.159Z,143888.75
2023-01-27T00:37:54.971Z,143881.47
2023-01-27T00:40:21.817Z,143879.03
2023-01-27T00:42:48.636Z,143883.84
2023-01-27T00:45:34.245Z,143881.47
2023-01-27T00:48:01.128Z,143876.63
2023-01-27T00:50:27.977Z,143883.84
2023-01-27T00:52:54.959Z,143883.84
2023-01-27T00:55:21.742Z,143903.22
2023-01-27T00:57:48.574Z,143898.41
2023-01-27T01:00:16.328Z,143905.63
2023-01-27T01:02:43.423Z,143879.03
2023-01-27T01:05:10.293Z,143888.75
2023-01-27T01:07:37.211Z,143871.81
2023-01-27T01:10:04.159Z,143876.63
2023-01-27T01:12:30.999Z,143876.63
2023-01-27T01:14:57.852Z,143908.06
2023-01-27T01:17:24.699Z,143905.63
2023-01-27T01:19:51.557Z,143910.44
2023-01-27T01:22:18.815Z,143897.16
2023-01-27T01:24:45.638Z,143876.63
2023-01-27T01:27:13.288Z,143894.75
2023-01-27T01:29:40.087Z,143915.28
2023-01-27T01:32:09.883Z,143900.78
2023-01-27T01:34:37.186Z,143870.59
2023-01-27T01:37:04.543Z,143883.84
2023-01-27T01:39:31.756Z,143903.22
2023-01-27T01:41:58.859Z,143888.75
2023-01-27T01:44:29.042Z,143886.31
2023-01-27T01:46:55.961Z,143901.97
2023-01-27T01:49:25.863Z,143888.75
2023-01-27T01:51:56.020Z,143891.13
2023-01-27T01:54:25.950Z,143876.63
2023-01-27T01:56:57.908Z,143893.56
2023-01-27T01:59:28.681Z,143889.94
2023-01-27T02:01:56.967Z,143894.75
2023-01-27T02:04:27.851Z,143894.75
2023-01-27T02:06:54.695Z,143868.16
2023-01-27T02:09:22.067Z,143893.56
2023-01-27T02:11:49.710Z,143891.13
2023-01-27T02:14:17.230Z,143836.75
2023-01-27T02:16:44.408Z,143842.78
2023-01-27T02:19:18.666Z,143883.84
2023-01-27T02:21:45.670Z,143863.34
2023-01-27T02:24:12.845Z,143840.38
2023-01-27T02:26:43.878Z,143837.94
2023-01-27T02:29:12.679Z,143851.25
2023-01-27T02:31:40.696Z,143846.41
2023-01-27T02:34:09.977Z,143829.50
2023-01-27T02:36:43.962Z,143823.47
2023-01-27T02:39:13.935Z,143829.50
2023-01-27T02:41:42.603Z,143806.53
2023-01-27T02:44:10.982Z,143852.47
2023-01-27T02:46:38.903Z,143816.25
2023-01-27T02:49:07.356Z,143825.91
2023-01-27T02:51:34.422Z,143828.28
2023-01-27T02:54:01.895Z,143831.94
2023-01-27T02:56:28.792Z,143825.91
2023-01-27T02:58:57.248Z,143813.81
2023-01-27T03:01:32.537Z,143830.72
2023-01-27T03:04:00.010Z,143844.03
2023-01-27T03:06:26.870Z,143813.81
2023-01-27T03:08:53.840Z,143831.94
2023-01-27T03:11:39.458Z,143811.38
2023-01-27T03:14:07.327Z,143833.13
2023-01-27T03:16:52.684Z,143830.72
2023-01-27T03:19:19.598Z,143834.38
2023-01-27T03:21:51.127Z,143824.66
2023-01-27T03:24:18.823Z,143833.13
2023-01-27T03:26:46.467Z,143821.06
2023-01-27T03:29:33.789Z,143835.56
2023-01-27T03:32:01.388Z,143822.28
2023-01-27T03:34:29.605Z,143811.38
2023-01-27T03:37:22.918Z,143818.63
2023-01-27T03:40:09.864Z,143840.38
2023-01-27T03:42:55.364Z,143816.25
2023-01-27T03:45:40.821Z,143833.13
2023-01-27T03:48:07.632Z,143821.06
2023-01-27T03:50:43.111Z,143825.91
2023-01-27T03:53:10.483Z,143828.28
2023-01-27T03:55:37.841Z,143833.13
2023-01-27T03:58:18.250Z,143835.56
2023-01-27T04:00:46.159Z,143816.25
2023-01-27T04:03:31.839Z,143828.28
2023-01-27T04:06:21.031Z,143816.25
2023-01-27T04:08:47.823Z,143835.56
2023-01-27T04:11:33.478Z,143804.16
2023-01-27T04:14:01.779Z,143816.25
2023-01-27T04:16:30.108Z,143816.25
2023-01-27T04:18:57.572Z,143817.44
2023-01-27T04:21:25.482Z,143836.75
2023-01-27T04:23:52.718Z,143825.91
2023-01-27T04:26:19.756Z,143821.06
2023-01-27T04:28:46.936Z,143839.19
2023-01-27T04:31:15.417Z,143840.38
2023-01-27T04:33:42.757Z,143827.09
2023-01-27T04:36:09.603Z,143810.16
2023-01-27T04:38:36.542Z,143840.38
2023-01-27T04:41:03.350Z,143818.63
2023-01-27T04:43:30.371Z,143816.25
2023-01-27T04:45:57.246Z,143815.00
2023-01-27T04:48:24.143Z,143808.97
2023-01-27T04:50:50.994Z,143801.72
2023-01-27T04:53:17.793Z,143819.81
2023-01-27T04:55:47.229Z,143815.00
2023-01-27T04:58:14.124Z,143813.81
2023-01-27T05:00:40.942Z,143805.34
2023-01-27T05:03:09.571Z,143804.16
2023-01-27T05:05:36.932Z,143806.53
2023-01-27T05:08:07.973Z,143811.38
2023-01-27T05:10:34.841Z,143823.47
2023-01-27T05:13:02.172Z,143795.69
2023-01-27T05:15:29.772Z,143808.97
2023-01-27T05:17:56.633Z,143811.38
2023-01-27T05:20:23.561Z,143823.47
2023-01-27T05:22:50.934Z,143815.00
2023-01-27T05:25:17.734Z,143827.09
2023-01-27T05:27:44.949Z,143821.06
2023-01-27T05:30:12.091Z,143825.91
2023-01-27T05:32:38.927Z,143816.25
2023-01-27T05:35:06.045Z,143777.56
2023-01-27T05:37:33.046Z,143799.31
2023-01-27T05:39:59.903Z,143799.31
2023-01-27T05:42:26.748Z,143800.50
2023-01-27T05:44:53.563Z,143801.72
2023-01-27T05:47:20.378Z,143811.38
2023-01-27T05:49:47.219Z,143821.06
2023-01-27T05:52:14.067Z,143818.63
2023-01-27T05:54:40.934Z,143808.97
2023-01-27T05:57:07.854Z,143846.41
2023-01-27T05:59:34.677Z,143821.06
2023-01-27T06:02:01.604Z,143819.81
2023-01-27T06:04:28.750Z,143818.63
2023-01-27T06:06:55.568Z,143836.75
2023-01-27T06:09:22.425Z,143818.63
2023-01-27T06:11:49.234Z,143833.13
2023-01-27T06:14:16.041Z,143821.06
2023-01-27T06:16:43.990Z,143825.91
2023-01-27T06:19:11.096Z,143833.13
2023-01-27T06:21:38.205Z,143845.22
2023-01-27T06:24:05.235Z,143831.94
2023-01-27T06:26:32.102Z,143852.47
2023-01-27T06:28:58.960Z,143879.03
2023-01-27T06:31:27.388Z,143863.34
2023-01-27T06:33:54.399Z,143850.03
2023-01-27T06:36:21.803Z,143835.56
2023-01-27T06:38:49.318Z,143854.88
2023-01-27T06:41:16.196Z,143862.16
2023-01-27T06:43:43.011Z,143848.84
2023-01-27T06:46:09.910Z,143852.47
2023-01-27T06:48:37.969Z,143864.53
2023-01-27T06:51:04.952Z,143876.63
2023-01-27T06:53:32.461Z,143871.81
2023-01-27T06:56:00.201Z,143893.56
2023-01-27T06:58:27.563Z,143871.81
2023-01-27T07:00:55.269Z,143860.91
2023-01-27T07:03:22.694Z,143860.91
2023-01-27T07:05:49.745Z,143850.03
2023-01-27T07:08:16.623Z,143860.91
2023-01-27T07:10:43.488Z,143871.81
2023-01-27T07:13:11.762Z,143881.47
2023-01-27T07:15:38.788Z,143891.13
2023-01-27T07:18:06.201Z,143869.38
2023-01-27T07:20:33.031Z,143874.19
2023-01-27T07:23:00.890Z,143879.03
2023-01-27T07:25:28.294Z,143840.38
2023-01-27T07:27:57.500Z,143882.66
2023-01-27T07:30:24.534Z,143876.63
2023-01-27T07:32:51.483Z,143881.47
2023-01-27T07:35:18.392Z,143886.31
2023-01-27T07:37:45.225Z,143895.97
2023-01-27T07:40:13.682Z,143915.28
2023-01-27T07:42:41.211Z,143922.56
2023-01-27T07:45:08.384Z,143917.72
2023-01-27T07:47:35.228Z,143915.28
2023-01-27T07:50:02.039Z,143921.34
2023-01-27T07:52:28.907Z,143918.91
2023-01-27T07:54:55.835Z,143823.47
2023-01-27T07:57:22.690Z,143955.16
2023-01-27T07:59:52.996Z,143975.75
2023-01-27T08:02:19.839Z,143982.97
2023-01-27T08:04:53.425Z,143998.69
2023-01-27T08:07:21.208Z,143995.06
2023-01-27T08:09:48.080Z,143951.53
2023-01-27T08:12:15.182Z,143957.59
2023-01-27T08:14:42.114Z,143990.25
2023-01-27T08:17:08.995Z,144001.09
2023-01-27T08:19:35.895Z,144009.56
2023-01-27T08:22:02.887Z,143996.25
2023-01-27T08:24:29.905Z,144002.34
2023-01-27T08:26:56.870Z,144007.16
2023-01-27T08:29:23.843Z,144001.09
2023-01-27T08:31:50.774Z,144053.09
2023-01-27T08:34:17.681Z,144002.34
2023-01-27T08:36:44.735Z,144005.94
2023-01-27T08:39:11.690Z,144026.50
2023-01-27T08:41:38.859Z,144016.84
2023-01-27T08:44:06.902Z,143999.91
2023-01-27T08:46:33.818Z,144053.09
2023-01-27T08:49:00.637Z,144066.41
2023-01-27T08:51:27.546Z,144096.59
2023-01-27T08:53:54.558Z,144099.03
2023-01-27T08:56:21.742Z,144115.97
2023-01-27T08:58:48.759Z,144142.59
2023-01-27T09:01:16.488Z,144119.56
2023-01-27T09:03:43.406Z,144159.50
2023-01-27T09:06:11.309Z,144177.63
2023-01-27T09:08:38.683Z,144195.78
2023-01-27T09:11:23.722Z,144169.16
2023-01-27T09:13:50.563Z,144149.81
2023-01-27T09:16:17.426Z,144160.72
2023-01-27T09:18:44.296Z,144176.44
2023-01-27T09:21:11.162Z,144174.00
2023-01-27T09:23:38.084Z,144217.56
2023-01-27T09:26:05.108Z,144250.22
2023-01-27T09:28:31.970Z,144256.28
2023-01-27T09:30:59.406Z,144246.56
2023-01-27T09:33:26.932Z,144290.16
2023-01-27T09:36:03.672Z,144292.59
2023-01-27T09:38:32.870Z,144304.66
2023-01-27T09:41:28.924Z,144313.13
2023-01-27T09:44:14.397Z,144338.56
2023-01-27T09:46:41.480Z,144304.66
2023-01-27T09:49:26.773Z,144345.78
2023-01-27T09:51:56.516Z,144355.47
2023-01-27T09:54:29.421Z,144362.75
2023-01-27T09:56:56.226Z,144367.59
2023-01-27T09:59:42.309Z,144367.59
2023-01-27T10:02:12.453Z,144357.91
2023-01-27T10:04:49.015Z,144362.75
2023-01-27T10:07:26.554Z,144347.03
2023-01-27T10:10:16.625Z,144326.44
2023-01-27T10:12:50.258Z,144349.44
2023-01-27T10:15:39.471Z,144389.38
2023-01-27T10:18:20.377Z,144440.22
2023-01-27T10:21:00.909Z,144452.34
2023-01-27T10:23:33.886Z,144449.88
2023-01-27T10:26:08.442Z,144454.72
2023-01-27T10:28:42.244Z,144452.34
2023-01-27T10:31:12.819Z,144488.66
2023-01-27T10:33:39.697Z,144500.72
2023-01-27T10:36:10.637Z,144481.38
2023-01-27T10:38:56.209Z,144499.53
2023-01-27T10:41:29.049Z,144500.72
2023-01-27T10:43:58.608Z,144471.69
2023-01-27T10:46:48.944Z,144474.13
2023-01-27T10:49:24.123Z,144443.84
2023-01-27T10:52:11.209Z,144445.06
2023-01-27T10:54:41.158Z,144495.88
2023-01-27T10:57:13.954Z,144493.50
2023-01-27T11:00:00.591Z,144416.00
2023-01-27T11:02:42.667Z,144431.72
2023-01-27T11:05:11.530Z,144396.66
2023-01-27T11:07:45.173Z,144423.25
2023-01-27T11:10:17.350Z,144418.41
2023-01-27T11:12:47.103Z,144422.06
2023-01-27T11:15:20.289Z,144345.78
2023-01-27T11:17:53.039Z,144362.75
2023-01-27T11:20:19.889Z,144391.78
2023-01-27T11:23:04.422Z,144396.66
2023-01-27T11:25:31.289Z,144365.19
2023-01-27T11:28:21.496Z,144418.41
2023-01-27T11:30:48.311Z,144374.88
2023-01-27T11:33:22.388Z,144324.06
2023-01-27T11:35:49.456Z,144353.06
2023-01-27T11:38:19.541Z,144371.22
2023-01-27T11:40:48.030Z,144367.59
2023-01-27T11:43:17.031Z,144414.81
2023-01-27T11:45:46.024Z,144452.34
2023-01-27T11:48:14.911Z,144471.69
2023-01-27T11:50:42.769Z,144445.06
2023-01-27T11:53:09.634Z,144482.56
2023-01-27T11:55:38.159Z,144483.81
2023-01-27T11:58:13.422Z,144520.13
2023-01-27T12:00:59.102Z,144514.06
2023-01-27T12:03:46.169Z,144495.88
2023-01-27T12:06:16.033Z,144454.72
2023-01-27T12:08:46.493Z,144491.03
2023-01-27T12:11:17.670Z,144505.59
2023-01-27T12:13:48.591Z,144539.50
2023-01-27T12:16:15.631Z,144539.50
2023-01-27T12:18:54.067Z,144492.28
2023-01-27T12:21:21.783Z,144527.38
2023-01-27T12:23:51.976Z,144597.63
2023-01-27T12:26:29.951Z,144670.34
2023-01-27T12:29:05.519Z,144667.88
2023-01-27T12:31:42.447Z,144636.38
2023-01-27T12:34:23.019Z,144561.31
2023-01-27T12:36:50.570Z,144495.88
2023-01-27T12:39:30.459Z,144498.31
2023-01-27T12:41:57.342Z,144527.38
2023-01-27T12:44:25.438Z,144541.88
2023-01-27T12:47:00.901Z,144532.22
2023-01-27T12:49:31.619Z,144527.38
2023-01-27T12:52:01.291Z,144503.16
2023-01-27T12:54:29.845Z,144522.53
2023-01-27T12:57:01.006Z,144512.84
2023-01-27T12:59:28.199Z,144515.28
2023-01-27T13:01:58.134Z,144524.97
2023-01-27T13:04:26.964Z,144514.06
2023-01-27T13:06:59.961Z,144500.72
2023-01-27T13:09:29.054Z,144509.22
2023-01-27T13:11:57.386Z,144515.28
2023-01-27T13:14:28.210Z,144508.00
2023-01-27T13:16:55.934Z,144544.34
2023-01-27T13:19:26.741Z,144516.50
2023-01-27T13:21:55.131Z,144552.81
2023-01-27T13:24:27.828Z,144539.50
2023-01-27T13:26:54.749Z,144563.69
2023-01-27T13:29:25.776Z,144585.50
2023-01-27T13:32:01.698Z,144575.81
2023-01-27T13:34:49.276Z,144578.22
2023-01-27T13:37:19.082Z,144580.66
2023-01-27T13:40:04.864Z,144551.63
2023-01-27T13:42:43.950Z,144551.63
2023-01-27T13:45:14.361Z,144556.47
2023-01-27T13:47:47.255Z,144541.88
2023-01-27T13:50:32.687Z,144554.00
2023-01-27T13:53:00.337Z,144556.47
2023-01-27T13:55:39.327Z,144554.00
2023-01-27T13:58:06.212Z,144541.88
2023-01-27T14:00:41.244Z,144498.31
2023-01-27T14:03:17.173Z,144534.66
2023-01-27T14:05:53.186Z,144487.44
2023-01-27T14:08:28.983Z,144514.06
2023-01-27T14:11:03.688Z,144443.84
2023-01-27T14:13:43.246Z,144486.22
2023-01-27T14:16:17.371Z,144443.84
2023-01-27T14:19:04.598Z,144500.72
2023-01-27T14:21:45.136Z,144459.56
2023-01-27T14:24:37.272Z,144417.22
2023-01-27T14:27:13.659Z,144457.16
2023-01-27T14:29:49.571Z,144437.81
2023-01-27T14:32:42.589Z,144447.50
2023-01-27T14:35:16.623Z,144478.97
2023-01-27T14:37:50.292Z,144483.81
2023-01-27T14:40:21.279Z,144468.03
2023-01-27T14:43:14.584Z,144440.22
2023-01-27T14:45:47.735Z,144409.94
2023-01-27T14:48:14.548Z,144440.22
2023-01-27T14:51:01.759Z,144445.06
2023-01-27T14:53:35.272Z,144401.50
2023-01-27T14:56:18.685Z,144431.72
2023-01-27T14:58:55.306Z,144411.19
2023-01-27T15:01:27.675Z,144416.00
2023-01-27T15:04:12.182Z,144431.72
2023-01-27T15:06:53.499Z,144425.69
2023-01-27T15:09:20.310Z,144055.50
2023-01-27T15:11:59.174Z,144365.19
2023-01-27T15:14:26.064Z,144377.25
2023-01-27T15:17:11.799Z,144330.09
2023-01-27T15:19:50.673Z,144337.31
2023-01-27T15:22:27.079Z,144354.28
2023-01-27T15:25:12.811Z,144343.41
2023-01-27T15:27:40.487Z,144310.75
2023-01-27T15:30:20.149Z,144319.16
2023-01-27T15:32:46.983Z,144310.75
2023-01-27T15:35:29.148Z,144275.63
2023-01-27T15:37:59.209Z,144307.09
2023-01-27T15:40:27.475Z,144297.44
2023-01-27T15:42:57.533Z,144268.34
2023-01-27T15:45:28.788Z,144229.66
2023-01-27T15:47:59.987Z,144210.28
2023-01-27T15:50:29.516Z,144222.41
2023-01-27T15:53:01.196Z,144193.38
2023-01-27T15:55:30.450Z,144197.03
2023-01-27T15:58:18.386Z,144180.06
2023-01-27T16:00:52.795Z,144149.81
2023-01-27T16:03:23.657Z,144164.31
2023-01-27T16:05:52.923Z,144142.59
2023-01-27T16:08:20.679Z,144135.31
2023-01-27T16:10:47.541Z,144125.66
2023-01-27T16:13:14.335Z,144145.00
2023-01-27T16:15:41.434Z,144128.03
2023-01-27T16:18:08.266Z,144140.16
2023-01-27T16:20:54.270Z,144134.13
2023-01-27T16:23:24.161Z,144145.00
2023-01-27T16:25:54.788Z,144120.81
2023-01-27T16:28:24.256Z,144164.31
2023-01-27T16:31:00.217Z,144154.66
2023-01-27T16:33:33.049Z,144154.66
2023-01-27T16:36:16.915Z,144135.31
2023-01-27T16:38:45.517Z,144152.25
2023-01-27T16:41:15.476Z,144143.78
2023-01-27T16:43:53.492Z,144151.03
2023-01-27T16:46:25.961Z,144142.59
2023-01-27T16:48:53.005Z,144171.59
2023-01-27T16:51:25.895Z,144183.72
2023-01-27T16:53:54.540Z,144171.59
2023-01-27T16:56:41.713Z,144125.66
2023-01-27T16:59:12.470Z,144174.00
2023-01-27T17:01:45.289Z,144195.78
2023-01-27T17:04:20.002Z,144178.88
2023-01-27T17:06:48.280Z,144190.94
2023-01-27T17:09:23.085Z,144174.00
2023-01-27T17:11:50.389Z,144190.94
2023-01-27T17:14:29.988Z,144188.53
2023-01-27T17:16:58.909Z,144138.97
2023-01-27T17:19:33.570Z,144111.16
2023-01-27T17:22:06.589Z,144082.09
2023-01-27T17:24:35.931Z,144079.72
2023-01-27T17:27:04.958Z,144106.31
2023-01-27T17:29:37.001Z,144101.44
2023-01-27T17:32:16.680Z,144086.94
2023-01-27T17:34:43.559Z,144100.25
2023-01-27T17:37:15.071Z,144117.19
2023-01-27T17:39:42.662Z,144034.97
2023-01-27T17:42:16.757Z,144067.59
2023-01-27T17:44:44.362Z,144055.50
2023-01-27T17:47:18.848Z,144067.59
2023-01-27T17:49:47.284Z,144082.09
2023-01-27T17:52:21.618Z,144067.59
2023-01-27T17:54:49.204Z,144067.59
2023-01-27T17:57:20.227Z,144057.94
2023-01-27T17:59:59.864Z,144032.53
2023-01-27T18:02:32.225Z,144077.28
2023-01-27T18:05:01.432Z,144089.38
2023-01-27T18:07:28.367Z,144065.16
2023-01-27T18:09:55.888Z,144072.44
2023-01-27T18:12:30.289Z,143978.13
2023-01-27T18:14:57.338Z,144095.41
2023-01-27T18:17:25.802Z,144068.78
2023-01-27T18:19:53.829Z,144051.91
2023-01-27T18:22:21.289Z,144045.81
2023-01-27T18:25:03.591Z,144022.88
2023-01-27T18:27:32.809Z,144070.03
2023-01-27T18:30:09.270Z,144050.66
2023-01-27T18:32:38.089Z,144053.09
2023-01-27T18:35:18.433Z,144072.44
2023-01-27T18:37:51.101Z,144053.09
2023-01-27T18:40:23.906Z,144063.97
2023-01-27T18:42:54.659Z,144036.16
2023-01-27T18:45:21.796Z,144060.34
2023-01-27T18:47:49.037Z,144022.88
2023-01-27T18:50:17.087Z,144044.63
2023-01-27T18:52:44.138Z,144038.59
2023-01-27T18:55:21.540Z,144048.28
2023-01-27T18:57:58.118Z,144055.50
2023-01-27T19:00:26.651Z,144074.88
2023-01-27T19:02:56.259Z,144067.59
2023-01-27T19:05:33.524Z,144065.16
2023-01-27T19:08:00.750Z,144070.03
2023-01-27T19:10:29.363Z,144072.44
2023-01-27T19:12:58.438Z,144060.34
2023-01-27T19:15:26.877Z,144079.72
2023-01-27T19:17:54.801Z,144036.16
2023-01-27T19:20:23.536Z,144033.78
2023-01-27T19:22:51.108Z,144018.03
2023-01-27T19:25:18.433Z,144001.09
2023-01-27T19:27:47.023Z,143987.78
2023-01-27T19:30:25.153Z,143997.50
2023-01-27T19:32:52.914Z,144001.09
2023-01-27T19:35:19.800Z,143997.50
2023-01-27T19:37:47.288Z,143990.25
2023-01-27T19:40:18.388Z,143987.78
2023-01-27T19:42:45.407Z,143989.03
2023-01-27T19:45:16.603Z,143990.25
2023-01-27T19:47:46.716Z,143976.94
2023-01-27T19:50:18.901Z,143984.22
2023-01-27T19:52:45.856Z,143970.91
2023-01-27T19:55:13.108Z,143980.56
2023-01-27T19:57:40.561Z,143976.94
2023-01-27T20:00:18.225Z,143974.50
2023-01-27T20:02:45.158Z,143986.59
2023-01-27T20:05:13.322Z,143987.78
2023-01-27T20:07:40.279Z,143987.78
2023-01-27T20:10:10.390Z,143968.47
2023-01-27T20:12:37.895Z,143963.63
2023-01-27T20:15:04.942Z,143973.31
2023-01-27T20:17:31.882Z,143982.97
2023-01-27T20:19:59.001Z,143985.41
2023-01-27T20:22:41.534Z,143970.91
2023-01-27T20:25:11.852Z,143966.06
2023-01-27T20:27:38.887Z,143982.97
2023-01-27T20:30:06.240Z,143982.97
2023-01-27T20:32:33.043Z,143993.88
2023-01-27T20:34:59.954Z,143985.41
2023-01-27T20:37:26.749Z,143973.31
2023-01-27T20:39:53.558Z,143989.03
2023-01-27T20:42:20.361Z,144027.69
2023-01-27T20:44:47.223Z,144007.16
2023-01-27T20:47:15.241Z,144005.94
2023-01-27T20:49:43.186Z,143990.25
2023-01-27T20:52:10.084Z,143995.06
2023-01-27T20:54:36.919Z,143993.88
2023-01-27T20:57:03.753Z,144002.34
2023-01-27T20:59:30.597Z,143995.06
2023-01-27T21:01:57.465Z,144022.88
2023-01-27T21:04:24.335Z,144019.22
2023-01-27T21:06:51.162Z,143996.25
2023-01-27T21:09:18.061Z,143982.97
2023-01-27T21:11:44.918Z,143974.50
2023-01-27T21:14:12.095Z,143968.47
2023-01-27T21:16:39.030Z,143982.97
2023-01-27T21:19:05.951Z,143978.13
2023-01-27T21:21:32.784Z,143985.41
2023-01-27T21:24:02.406Z,143987.78
2023-01-27T21:26:29.390Z,143975.75
2023-01-27T21:28:56.779Z,143974.50
2023-01-27T21:31:29.955Z,143966.06
2023-01-27T21:33:58.456Z,143961.25
2023-01-27T21:36:25.313Z,143996.25
2023-01-27T21:38:53.844Z,144001.09
2023-01-27T21:41:44.814Z,143990.25
2023-01-27T21:44:38.083Z,143960.00
2023-01-27T21:47:05.630Z,143961.25
2023-01-27T21:49:56.841Z,143953.97
2023-01-27T21:52:24.504Z,143949.13
2023-01-27T21:54:51.414Z,143979.38
2023-01-27T21:57:18.719Z,143951.53
2023-01-27T21:59:45.628Z,143958.81
2023-01-27T22:02:12.963Z,143955.16
2023-01-27T22:04:43.491Z,143966.06
2023-01-27T22:07:11.442Z,143945.50
2023-01-27T22:09:38.324Z,143980.56
2023-01-27T22:12:05.685Z,143922.56
2023-01-27T22:14:33.963Z,143906.84
2023-01-27T22:17:01.035Z,143891.13
2023-01-27T22:19:29.104Z,143840.38
2023-01-27T22:21:56.099Z,143864.53
2023-01-27T22:24:22.932Z,143871.81
2023-01-27T22:26:50.267Z,143891.13
2023-01-27T22:29:17.724Z,143895.97
2023-01-27T22:31:44.604Z,143895.97
2023-01-27T22:34:11.423Z,143922.56
2023-01-27T22:36:38.230Z,143944.31
2023-01-27T22:39:05.054Z,143920.13
2023-01-27T22:41:33.172Z,143920.13
2023-01-27T22:44:00.183Z,143917.72
2023-01-27T22:46:27.007Z,143934.66
2023-01-27T22:48:53.855Z,143917.72
2023-01-27T22:51:23.856Z,143915.28
2023-01-27T22:53:50.792Z,143927.38
2023-01-27T22:56:17.649Z,143908.06
2023-01-27T22:58:44.518Z,143906.84
2023-01-27T23:01:11.467Z,143910.44
2023-01-27T23:03:38.297Z,143923.75
2023-01-27T23:06:05.962Z,143909.25
2023-01-27T23:08:33.399Z,143891.13
2023-01-27T23:11:01.498Z,143900.78
2023-01-27T23:13:29.126Z,143932.22
2023-01-27T23:15:56.203Z,143898.41
2023-01-27T23:18:23.890Z,143912.88
2023-01-27T23:20:50.913Z,143935.84
2023-01-27T23:23:19.193Z,143887.50
2023-01-27T23:25:47.375Z,143940.69
2023-01-27T23:28:16.080Z,143923.75
2023-01-27T23:30:46.627Z,143944.31
2023-01-27T23:33:14.229Z,143892.31
2023-01-27T23:35:41.339Z,143893.56
2023-01-27T23:38:19.351Z,143929.81
2023-01-27T23:40:56.046Z,143910.44
2023-01-27T23:43:23.771Z,143900.78
2023-01-27T23:45:54.472Z,143910.44
2023-01-27T23:48:22.215Z,143900.78
2023-01-27T23:50:49.398Z,143900.78
2023-01-27T23:53:16.620Z,143906.84
2023-01-27T23:55:43.535Z,143908.06
2023-01-27T23:58:10.411Z,143898.41
